sensor_id;sensor_type;location;lat;lon;timestamp;temperature;humidity
5459;DHT22;2752;49.992;8.422;2023-07-16T00:02:24;20.00;95.20
5459;DHT22;2752;49.992;8.422;2023-07-16T00:04:50;20.10;96.30
5459;DHT22;2752;49.992;8.422;2023-07-16T00:07:17;20.10;95.70
5459;DHT22;2752;49.992;8.422;2023-07-16T00:09:44;20.00;95.60
5459;DHT22;2752;49.992;8.422;2023-07-16T00:12:10;20.10;94.70
5459;DHT22;2752;49.992;8.422;2023-07-16T00:14:38;20.00;94.00
5459;DHT22;2752;49.992;8.422;2023-07-16T00:17:05;20.00;94.80
5459;DHT22;2752;49.992;8.422;2023-07-16T00:19:32;19.90;94.30
5459;DHT22;2752;49.992;8.422;2023-07-16T00:21:58;20.00;94.80
5459;DHT22;2752;49.992;8.422;2023-07-16T00:24:26;19.90;94.10
5459;DHT22;2752;49.992;8.422;2023-07-16T00:26:53;19.90;94.30
5459;DHT22;2752;49.992;8.422;2023-07-16T00:29:19;19.90;94.50
5459;DHT22;2752;49.992;8.422;2023-07-16T00:34:14;19.80;94.00
5459;DHT22;2752;49.992;8.422;2023-07-16T00:36:41;19.80;92.60
5459;DHT22;2752;49.992;8.422;2023-07-16T00:39:08;19.70;92.20
5459;DHT22;2752;49.992;8.422;2023-07-16T00:41:35;19.70;91.50
5459;DHT22;2752;49.992;8.422;2023-07-16T00:44:02;19.70;90.70
5459;DHT22;2752;49.992;8.422;2023-07-16T00:46:29;19.70;89.90
5459;DHT22;2752;49.992;8.422;2023-07-16T00:48:57;19.60;91.30
5459;DHT22;2752;49.992;8.422;2023-07-16T00:51:24;19.60;92.10
5459;DHT22;2752;49.992;8.422;2023-07-16T00:53:52;19.50;92.30
5459;DHT22;2752;49.992;8.422;2023-07-16T00:56:19;19.50;93.20
5459;DHT22;2752;49.992;8.422;2023-07-16T00:58:46;19.50;93.80
5459;DHT22;2752;49.992;8.422;2023-07-16T01:01:13;19.50;94.00
5459;DHT22;2752;49.992;8.422;2023-07-16T01:03:39;19.50;94.00
5459;DHT22;2752;49.992;8.422;2023-07-16T01:06:13;19.50;94.20
5459;DHT22;2752;49.992;8.422;2023-07-16T01:08:44;19.40;94.40
5459;DHT22;2752;49.992;8.422;2023-07-16T01:11:12;19.40;94.40
5459;DHT22;2752;49.992;8.422;2023-07-16T01:13:41;19.40;94.90
5459;DHT22;2752;49.992;8.422;2023-07-16T01:16:18;19.40;94.70
5459;DHT22;2752;49.992;8.422;2023-07-16T01:18:45;19.40;94.30
5459;DHT22;2752;49.992;8.422;2023-07-16T01:21:13;19.30;93.90
5459;DHT22;2752;49.992;8.422;2023-07-16T01:23:58;19.30;94.70
5459;DHT22;2752;49.992;8.422;2023-07-16T01:26:35;19.30;94.20
5459;DHT22;2752;49.992;8.422;2023-07-16T01:29:32;19.40;93.60
5459;DHT22;2752;49.992;8.422;2023-07-16T01:32:02;19.40;92.70
5459;DHT22;2752;49.992;8.422;2023-07-16T01:34:31;19.40;92.60
5459;DHT22;2752;49.992;8.422;2023-07-16T01:36:59;19.40;92.30
5459;DHT22;2752;49.992;8.422;2023-07-16T01:39:26;19.30;93.00
5459;DHT22;2752;49.992;8.422;2023-07-16T01:41:52;19.30;93.10
5459;DHT22;2752;49.992;8.422;2023-07-16T01:44:19;19.30;93.20
5459;DHT22;2752;49.992;8.422;2023-07-16T01:47:03;19.30;93.10
5459;DHT22;2752;49.992;8.422;2023-07-16T01:49:31;19.30;93.10
5459;DHT22;2752;49.992;8.422;2023-07-16T01:51:59;19.30;92.40
5459;DHT22;2752;49.992;8.422;2023-07-16T01:54:26;19.30;89.70
5459;DHT22;2752;49.992;8.422;2023-07-16T01:56:53;19.20;87.10
5459;DHT22;2752;49.992;8.422;2023-07-16T01:59:19;19.10;81.50
5459;DHT22;2752;49.992;8.422;2023-07-16T02:01:47;19.00;82.00
5459;DHT22;2752;49.992;8.422;2023-07-16T02:04:14;19.00;79.70
5459;DHT22;2752;49.992;8.422;2023-07-16T02:06:41;18.90;78.40
5459;DHT22;2752;49.992;8.422;2023-07-16T02:09:08;18.90;78.40
5459;DHT22;2752;49.992;8.422;2023-07-16T02:11:35;18.80;76.00
5459;DHT22;2752;49.992;8.422;2023-07-16T02:14:01;18.80;74.50
5459;DHT22;2752;49.992;8.422;2023-07-16T02:16:28;18.70;77.00
5459;DHT22;2752;49.992;8.422;2023-07-16T02:18:56;18.60;79.30
5459;DHT22;2752;49.992;8.422;2023-07-16T02:21:23;18.60;80.20
5459;DHT22;2752;49.992;8.422;2023-07-16T02:23:49;18.60;81.00
5459;DHT22;2752;49.992;8.422;2023-07-16T02:26:16;18.50;82.80
5459;DHT22;2752;49.992;8.422;2023-07-16T02:28:43;18.40;84.30
5459;DHT22;2752;49.992;8.422;2023-07-16T02:31:10;18.40;85.70
5459;DHT22;2752;49.992;8.422;2023-07-16T02:33:36;18.40;86.30
5459;DHT22;2752;49.992;8.422;2023-07-16T02:38:33;18.40;86.80
5459;DHT22;2752;49.992;8.422;2023-07-16T02:41:00;18.40;87.60
5459;DHT22;2752;49.992;8.422;2023-07-16T02:43:26;18.30;87.20
5459;DHT22;2752;49.992;8.422;2023-07-16T02:45:55;18.30;87.10
5459;DHT22;2752;49.992;8.422;2023-07-16T02:50:49;18.20;86.50
5459;DHT22;2752;49.992;8.422;2023-07-16T02:53:18;18.20;86.20
5459;DHT22;2752;49.992;8.422;2023-07-16T02:55:45;18.10;86.00
5459;DHT22;2752;49.992;8.422;2023-07-16T02:58:13;18.20;87.90
5459;DHT22;2752;49.992;8.422;2023-07-16T03:00:40;18.20;86.30
5459;DHT22;2752;49.992;8.422;2023-07-16T03:03:07;18.10;85.40
5459;DHT22;2752;49.992;8.422;2023-07-16T03:05:35;18.10;86.00
5459;DHT22;2752;49.992;8.422;2023-07-16T03:08:02;18.00;85.80
5459;DHT22;2752;49.992;8.422;2023-07-16T03:10:30;18.00;86.10
5459;DHT22;2752;49.992;8.422;2023-07-16T03:12:58;17.90;85.90
5459;DHT22;2752;49.992;8.422;2023-07-16T03:15:27;17.90;85.50
5459;DHT22;2752;49.992;8.422;2023-07-16T03:17:55;17.80;86.20
5459;DHT22;2752;49.992;8.422;2023-07-16T03:20:24;17.80;86.20
5459;DHT22;2752;49.992;8.422;2023-07-16T03:22:51;17.80;85.70
5459;DHT22;2752;49.992;8.422;2023-07-16T03:25:17;17.80;86.40
5459;DHT22;2752;49.992;8.422;2023-07-16T03:27:46;17.80;85.40
5459;DHT22;2752;49.992;8.422;2023-07-16T03:30:13;17.70;84.30
5459;DHT22;2752;49.992;8.422;2023-07-16T03:32:40;17.80;82.80
5459;DHT22;2752;49.992;8.422;2023-07-16T03:35:08;17.80;81.80
5459;DHT22;2752;49.992;8.422;2023-07-16T03:37:35;17.80;81.00
5459;DHT22;2752;49.992;8.422;2023-07-16T03:40:13;17.90;80.70
5459;DHT22;2752;49.992;8.422;2023-07-16T03:42:41;18.00;79.10
5459;DHT22;2752;49.992;8.422;2023-07-16T03:45:10;17.90;76.90
5459;DHT22;2752;49.992;8.422;2023-07-16T03:47:37;17.80;77.50
5459;DHT22;2752;49.992;8.422;2023-07-16T03:50:05;17.90;77.60
5459;DHT22;2752;49.992;8.422;2023-07-16T03:52:32;17.90;77.00
5459;DHT22;2752;49.992;8.422;2023-07-16T03:54:59;17.90;77.00
5459;DHT22;2752;49.992;8.422;2023-07-16T03:57:27;17.90;75.90
5459;DHT22;2752;49.992;8.422;2023-07-16T03:59:54;17.90;76.10
5459;DHT22;2752;49.992;8.422;2023-07-16T04:02:23;18.00;75.70
5459;DHT22;2752;49.992;8.422;2023-07-16T04:04:50;18.00;74.80
5459;DHT22;2752;49.992;8.422;2023-07-16T04:07:17;18.00;75.00
5459;DHT22;2752;49.992;8.422;2023-07-16T04:09:44;18.00;73.00
5459;DHT22;2752;49.992;8.422;2023-07-16T04:12:12;18.10;71.80
5459;DHT22;2752;49.992;8.422;2023-07-16T04:14:39;18.10;72.50
5459;DHT22;2752;49.992;8.422;2023-07-16T04:17:07;18.20;71.10
5459;DHT22;2752;49.992;8.422;2023-07-16T04:19:37;18.20;71.30
5459;DHT22;2752;49.992;8.422;2023-07-16T04:22:05;18.30;69.70
5459;DHT22;2752;49.992;8.422;2023-07-16T04:24:33;18.30;68.60
5459;DHT22;2752;49.992;8.422;2023-07-16T04:27:00;18.30;68.40
5459;DHT22;2752;49.992;8.422;2023-07-16T04:29:27;18.10;69.00
5459;DHT22;2752;49.992;8.422;2023-07-16T04:31:54;18.10;70.40
5459;DHT22;2752;49.992;8.422;2023-07-16T04:34:23;18.00;71.50
5459;DHT22;2752;49.992;8.422;2023-07-16T04:36:52;17.90;72.80
5459;DHT22;2752;49.992;8.422;2023-07-16T04:39:19;17.90;74.20
5459;DHT22;2752;49.992;8.422;2023-07-16T04:41:46;17.90;74.90
5459;DHT22;2752;49.992;8.422;2023-07-16T04:44:13;17.80;74.00
5459;DHT22;2752;49.992;8.422;2023-07-16T04:46:40;17.90;75.40
5459;DHT22;2752;49.992;8.422;2023-07-16T04:49:07;17.90;74.80
5459;DHT22;2752;49.992;8.422;2023-07-16T04:51:34;17.90;75.40
5459;DHT22;2752;49.992;8.422;2023-07-16T04:54:02;17.90;73.90
5459;DHT22;2752;49.992;8.422;2023-07-16T04:56:29;17.90;73.90
5459;DHT22;2752;49.992;8.422;2023-07-16T04:58:56;18.00;74.70
5459;DHT22;2752;49.992;8.422;2023-07-16T05:01:24;17.80;73.80
5459;DHT22;2752;49.992;8.422;2023-07-16T05:03:50;18.10;73.20
5459;DHT22;2752;49.992;8.422;2023-07-16T05:06:17;18.10;73.40
5459;DHT22;2752;49.992;8.422;2023-07-16T05:08:44;18.10;72.80
5459;DHT22;2752;49.992;8.422;2023-07-16T05:11:13;18.20;71.20
5459;DHT22;2752;49.992;8.422;2023-07-16T05:13:40;18.20;71.30
5459;DHT22;2752;49.992;8.422;2023-07-16T05:16:07;18.30;69.60
5459;DHT22;2752;49.992;8.422;2023-07-16T05:18:35;18.30;68.80
5459;DHT22;2752;49.992;8.422;2023-07-16T05:21:01;18.40;67.10
5459;DHT22;2752;49.992;8.422;2023-07-16T05:23:28;18.40;64.00
5459;DHT22;2752;49.992;8.422;2023-07-16T05:25:56;18.40;64.00
5459;DHT22;2752;49.992;8.422;2023-07-16T05:28:24;18.50;62.50
5459;DHT22;2752;49.992;8.422;2023-07-16T05:30:58;18.60;64.10
5459;DHT22;2752;49.992;8.422;2023-07-16T05:33:25;18.50;61.30
5459;DHT22;2752;49.992;8.422;2023-07-16T05:35:52;18.60;57.20
5459;DHT22;2752;49.992;8.422;2023-07-16T05:38:19;18.70;55.70
5459;DHT22;2752;49.992;8.422;2023-07-16T05:40:46;18.80;56.50
5459;DHT22;2752;49.992;8.422;2023-07-16T05:43:12;18.80;53.10
5459;DHT22;2752;49.992;8.422;2023-07-16T05:45:42;18.80;51.80
5459;DHT22;2752;49.992;8.422;2023-07-16T05:48:08;18.80;51.20
5459;DHT22;2752;49.992;8.422;2023-07-16T05:50:38;19.00;51.50
5459;DHT22;2752;49.992;8.422;2023-07-16T05:53:05;19.00;47.10
5459;DHT22;2752;49.992;8.422;2023-07-16T05:55:33;19.10;44.00
5459;DHT22;2752;49.992;8.422;2023-07-16T05:57:59;19.20;39.60
5459;DHT22;2752;49.992;8.422;2023-07-16T06:00:28;19.20;31.20
5459;DHT22;2752;49.992;8.422;2023-07-16T06:02:56;19.30;29.10
5459;DHT22;2752;49.992;8.422;2023-07-16T06:05:24;19.30;30.20
5459;DHT22;2752;49.992;8.422;2023-07-16T06:10:25;19.40;27.70
5459;DHT22;2752;49.992;8.422;2023-07-16T06:12:52;19.50;24.50
5459;DHT22;2752;49.992;8.422;2023-07-16T06:15:19;19.60;19.80
5459;DHT22;2752;49.992;8.422;2023-07-16T06:17:47;19.70;19.50
5459;DHT22;2752;49.992;8.422;2023-07-16T06:20:15;19.80;8.00
5459;DHT22;2752;49.992;8.422;2023-07-16T06:22:42;19.80;8.60
5459;DHT22;2752;49.992;8.422;2023-07-16T06:25:09;19.90;11.50
5459;DHT22;2752;49.992;8.422;2023-07-16T06:27:38;20.10;7.40
5459;DHT22;2752;49.992;8.422;2023-07-16T06:30:06;20.10;6.30
5459;DHT22;2752;49.992;8.422;2023-07-16T06:32:34;20.10;8.50
5459;DHT22;2752;49.992;8.422;2023-07-16T06:35:03;20.20;1.00
5459;DHT22;2752;49.992;8.422;2023-07-16T06:37:33;20.30;1.00
5459;DHT22;2752;49.992;8.422;2023-07-16T06:40:00;20.30;1.00
5459;DHT22;2752;49.992;8.422;2023-07-16T06:42:27;20.10;1.00
5459;DHT22;2752;49.992;8.422;2023-07-16T06:44:55;20.30;1.00
5459;DHT22;2752;49.992;8.422;2023-07-16T06:47:22;20.40;1.00
5459;DHT22;2752;49.992;8.422;2023-07-16T06:49:50;20.50;1.00
5459;DHT22;2752;49.992;8.422;2023-07-16T06:52:20;20.50;1.00
5459;DHT22;2752;49.992;8.422;2023-07-16T06:54:49;20.60;1.00
5459;DHT22;2752;49.992;8.422;2023-07-16T06:57:16;20.60;1.00
5459;DHT22;2752;49.992;8.422;2023-07-16T06:59:44;20.70;1.00
5459;DHT22;2752;49.992;8.422;2023-07-16T07:02:11;20.80;1.00
5459;DHT22;2752;49.992;8.422;2023-07-16T07:04:39;21.00;1.00
5459;DHT22;2752;49.992;8.422;2023-07-16T07:07:07;21.00;1.00
5459;DHT22;2752;49.992;8.422;2023-07-16T07:09:34;20.90;1.00
5459;DHT22;2752;49.992;8.422;2023-07-16T07:12:02;21.00;1.00
5459;DHT22;2752;49.992;8.422;2023-07-16T07:14:29;21.00;1.00
5459;DHT22;2752;49.992;8.422;2023-07-16T07:16:57;21.10;1.00
5459;DHT22;2752;49.992;8.422;2023-07-16T07:19:24;21.20;1.00
5459;DHT22;2752;49.992;8.422;2023-07-16T07:21:51;21.00;1.00
5459;DHT22;2752;49.992;8.422;2023-07-16T07:24:19;21.00;1.00
5459;DHT22;2752;49.992;8.422;2023-07-16T07:26:46;21.00;1.00
5459;DHT22;2752;49.992;8.422;2023-07-16T07:29:15;21.00;1.00
5459;DHT22;2752;49.992;8.422;2023-07-16T07:31:42;21.00;1.00
5459;DHT22;2752;49.992;8.422;2023-07-16T07:34:10;20.90;1.00
5459;DHT22;2752;49.992;8.422;2023-07-16T07:36:37;21.00;1.00
5459;DHT22;2752;49.992;8.422;2023-07-16T07:39:04;21.10;1.00
5459;DHT22;2752;49.992;8.422;2023-07-16T07:41:31;21.00;1.00
5459;DHT22;2752;49.992;8.422;2023-07-16T07:44:01;21.00;1.00
5459;DHT22;2752;49.992;8.422;2023-07-16T07:46:30;21.00;1.00
5459;DHT22;2752;49.992;8.422;2023-07-16T07:48:57;21.00;1.00
5459;DHT22;2752;49.992;8.422;2023-07-16T07:51:25;21.10;1.00
5459;DHT22;2752;49.992;8.422;2023-07-16T07:53:52;21.30;1.00
5459;DHT22;2752;49.992;8.422;2023-07-16T07:56:20;21.30;1.00
5459;DHT22;2752;49.992;8.422;2023-07-16T07:58:47;21.30;1.00
5459;DHT22;2752;49.992;8.422;2023-07-16T08:01:13;21.40;1.00
5459;DHT22;2752;49.992;8.422;2023-07-16T08:03:44;21.50;1.00
5459;DHT22;2752;49.992;8.422;2023-07-16T08:06:11;21.70;1.00
5459;DHT22;2752;49.992;8.422;2023-07-16T08:08:38;21.80;1.00
5459;DHT22;2752;49.992;8.422;2023-07-16T08:11:06;22.00;1.00
5459;DHT22;2752;49.992;8.422;2023-07-16T08:13:33;22.00;1.00
5459;DHT22;2752;49.992;8.422;2023-07-16T08:16:00;22.10;1.00
5459;DHT22;2752;49.992;8.422;2023-07-16T08:18:27;22.20;1.00
5459;DHT22;2752;49.992;8.422;2023-07-16T08:20:55;22.20;1.00
5459;DHT22;2752;49.992;8.422;2023-07-16T08:23:23;22.30;1.00
5459;DHT22;2752;49.992;8.422;2023-07-16T08:25:49;22.50;1.00
5459;DHT22;2752;49.992;8.422;2023-07-16T08:28:17;22.40;1.00
5459;DHT22;2752;49.992;8.422;2023-07-16T08:30:46;22.00;1.00
5459;DHT22;2752;49.992;8.422;2023-07-16T08:33:15;21.90;1.00
5459;DHT22;2752;49.992;8.422;2023-07-16T08:35:43;22.10;1.00
5459;DHT22;2752;49.992;8.422;2023-07-16T08:38:11;22.40;1.00
5459;DHT22;2752;49.992;8.422;2023-07-16T08:40:39;22.40;1.00
5459;DHT22;2752;49.992;8.422;2023-07-16T08:43:08;22.40;1.00
5459;DHT22;2752;49.992;8.422;2023-07-16T08:45:39;22.50;1.00
5459;DHT22;2752;49.992;8.422;2023-07-16T08:48:09;23.10;1.00
5459;DHT22;2752;49.992;8.422;2023-07-16T08:50:37;22.80;1.00
5459;DHT22;2752;49.992;8.422;2023-07-16T08:53:04;23.00;1.00
5459;DHT22;2752;49.992;8.422;2023-07-16T08:55:33;23.00;1.00
5459;DHT22;2752;49.992;8.422;2023-07-16T08:58:04;23.20;1.00
5459;DHT22;2752;49.992;8.422;2023-07-16T09:00:32;23.30;1.00
5459;DHT22;2752;49.992;8.422;2023-07-16T09:03:03;23.30;1.00
5459;DHT22;2752;49.992;8.422;2023-07-16T09:05:32;23.20;1.00
5459;DHT22;2752;49.992;8.422;2023-07-16T09:08:00;23.40;1.00
5459;DHT22;2752;49.992;8.422;2023-07-16T09:10:28;23.40;1.00
5459;DHT22;2752;49.992;8.422;2023-07-16T09:12:58;23.20;1.00
5459;DHT22;2752;49.992;8.422;2023-07-16T09:15:29;23.10;1.00
5459;DHT22;2752;49.992;8.422;2023-07-16T09:17:56;23.10;1.00
5459;DHT22;2752;49.992;8.422;2023-07-16T09:20:24;22.90;1.00
5459;DHT22;2752;49.992;8.422;2023-07-16T09:22:55;22.70;1.00
5459;DHT22;2752;49.992;8.422;2023-07-16T09:25:26;22.60;1.00
5459;DHT22;2752;49.992;8.422;2023-07-16T09:27:52;22.70;1.00
5459;DHT22;2752;49.992;8.422;2023-07-16T09:30:22;22.80;1.00
5459;DHT22;2752;49.992;8.422;2023-07-16T09:32:48;22.80;1.00
5459;DHT22;2752;49.992;8.422;2023-07-16T09:35:16;22.90;1.00
5459;DHT22;2752;49.992;8.422;2023-07-16T09:37:44;23.20;1.00
5459;DHT22;2752;49.992;8.422;2023-07-16T09:40:11;23.20;1.00
5459;DHT22;2752;49.992;8.422;2023-07-16T09:42:39;23.30;1.00
5459;DHT22;2752;49.992;8.422;2023-07-16T09:45:08;23.50;1.00
5459;DHT22;2752;49.992;8.422;2023-07-16T09:47:39;23.60;1.00
5459;DHT22;2752;49.992;8.422;2023-07-16T09:50:06;23.70;1.00
5459;DHT22;2752;49.992;8.422;2023-07-16T09:52:33;23.90;1.00
5459;DHT22;2752;49.992;8.422;2023-07-16T09:55:02;24.00;1.00
5459;DHT22;2752;49.992;8.422;2023-07-16T09:57:34;23.70;1.00
5459;DHT22;2752;49.992;8.422;2023-07-16T10:00:08;23.60;1.00
5459;DHT22;2752;49.992;8.422;2023-07-16T10:02:42;23.90;1.00
5459;DHT22;2752;49.992;8.422;2023-07-16T10:05:13;24.10;1.00
5459;DHT22;2752;49.992;8.422;2023-07-16T10:07:41;24.20;1.00
5459;DHT22;2752;49.992;8.422;2023-07-16T10:10:09;24.40;1.00
5459;DHT22;2752;49.992;8.422;2023-07-16T10:12:37;24.50;1.00
5459;DHT22;2752;49.992;8.422;2023-07-16T10:15:06;24.60;1.00
5459;DHT22;2752;49.992;8.422;2023-07-16T10:17:33;24.60;1.00
5459;DHT22;2752;49.992;8.422;2023-07-16T10:20:03;24.60;1.00
5459;DHT22;2752;49.992;8.422;2023-07-16T10:22:34;24.80;1.00
5459;DHT22;2752;49.992;8.422;2023-07-16T10:25:02;24.80;1.00
5459;DHT22;2752;49.992;8.422;2023-07-16T10:27:32;24.70;1.00
5459;DHT22;2752;49.992;8.422;2023-07-16T10:30:00;24.80;1.00
5459;DHT22;2752;49.992;8.422;2023-07-16T10:32:29;24.90;1.00
5459;DHT22;2752;49.992;8.422;2023-07-16T10:34:57;25.00;1.00
5459;DHT22;2752;49.992;8.422;2023-07-16T10:37:26;25.00;1.00
5459;DHT22;2752;49.992;8.422;2023-07-16T10:39:56;25.10;1.00
5459;DHT22;2752;49.992;8.422;2023-07-16T10:42:24;25.40;1.00
5459;DHT22;2752;49.992;8.422;2023-07-16T10:44:52;25.30;1.00
5459;DHT22;2752;49.992;8.422;2023-07-16T10:47:22;25.20;1.00
5459;DHT22;2752;49.992;8.422;2023-07-16T10:49:50;25.30;1.00
5459;DHT22;2752;49.992;8.422;2023-07-16T10:52:19;25.40;1.00
5459;DHT22;2752;49.992;8.422;2023-07-16T10:54:47;25.20;1.00
5459;DHT22;2752;49.992;8.422;2023-07-16T10:57:17;25.20;1.00
5459;DHT22;2752;49.992;8.422;2023-07-16T10:59:45;25.10;1.00
5459;DHT22;2752;49.992;8.422;2023-07-16T11:02:15;25.30;1.00
5459;DHT22;2752;49.992;8.422;2023-07-16T11:04:43;25.10;1.00
5459;DHT22;2752;49.992;8.422;2023-07-16T11:07:11;25.00;1.00
5459;DHT22;2752;49.992;8.422;2023-07-16T11:09:42;24.70;1.00
5459;DHT22;2752;49.992;8.422;2023-07-16T11:12:12;24.30;1.00
5459;DHT22;2752;49.992;8.422;2023-07-16T11:14:43;24.20;1.00
5459;DHT22;2752;49.992;8.422;2023-07-16T11:17:11;24.00;1.00
5459;DHT22;2752;49.992;8.422;2023-07-16T11:19:39;24.00;1.00
5459;DHT22;2752;49.992;8.422;2023-07-16T11:22:09;24.00;1.00
5459;DHT22;2752;49.992;8.422;2023-07-16T11:24:36;24.10;1.00
5459;DHT22;2752;49.992;8.422;2023-07-16T11:27:11;24.30;1.00
5459;DHT22;2752;49.992;8.422;2023-07-16T11:29:47;24.50;1.00
5459;DHT22;2752;49.992;8.422;2023-07-16T11:32:26;24.70;1.00
5459;DHT22;2752;49.992;8.422;2023-07-16T11:34:53;24.90;1.00
5459;DHT22;2752;49.992;8.422;2023-07-16T11:37:21;24.90;1.00
5459;DHT22;2752;49.992;8.422;2023-07-16T11:39:48;24.80;1.00
5459;DHT22;2752;49.992;8.422;2023-07-16T11:42:22;24.90;1.00
5459;DHT22;2752;49.992;8.422;2023-07-16T11:44:51;24.90;1.00
5459;DHT22;2752;49.992;8.422;2023-07-16T11:47:20;24.70;1.00
5459;DHT22;2752;49.992;8.422;2023-07-16T11:49:48;24.90;1.00
5459;DHT22;2752;49.992;8.422;2023-07-16T11:52:15;25.20;1.00
5459;DHT22;2752;49.992;8.422;2023-07-16T11:54:44;25.50;1.00
5459;DHT22;2752;49.992;8.422;2023-07-16T11:57:11;25.80;1.00
5459;DHT22;2752;49.992;8.422;2023-07-16T11:59:38;26.10;1.00
5459;DHT22;2752;49.992;8.422;2023-07-16T12:02:07;26.10;1.00
5459;DHT22;2752;49.992;8.422;2023-07-16T12:04:34;26.30;1.00
5459;DHT22;2752;49.992;8.422;2023-07-16T12:07:01;26.20;1.00
5459;DHT22;2752;49.992;8.422;2023-07-16T12:09:28;26.10;1.00
5459;DHT22;2752;49.992;8.422;2023-07-16T12:11:56;26.00;1.00
5459;DHT22;2752;49.992;8.422;2023-07-16T12:14:23;26.00;1.00
5459;DHT22;2752;49.992;8.422;2023-07-16T12:16:52;26.00;1.00
5459;DHT22;2752;49.992;8.422;2023-07-16T12:19:24;26.00;1.00
5459;DHT22;2752;49.992;8.422;2023-07-16T12:21:52;26.00;1.00
5459;DHT22;2752;49.992;8.422;2023-07-16T12:24:19;26.00;1.00
5459;DHT22;2752;49.992;8.422;2023-07-16T12:26:46;26.00;1.00
5459;DHT22;2752;49.992;8.422;2023-07-16T12:29:13;25.80;1.00
5459;DHT22;2752;49.992;8.422;2023-07-16T12:31:40;25.80;1.00
5459;DHT22;2752;49.992;8.422;2023-07-16T12:34:07;25.50;1.00
5459;DHT22;2752;49.992;8.422;2023-07-16T12:36:36;25.20;1.00
5459;DHT22;2752;49.992;8.422;2023-07-16T12:39:04;25.40;1.00
5459;DHT22;2752;49.992;8.422;2023-07-16T12:41:32;25.70;1.00
5459;DHT22;2752;49.992;8.422;2023-07-16T12:43:59;26.00;1.00
5459;DHT22;2752;49.992;8.422;2023-07-16T12:46:26;26.20;1.00
5459;DHT22;2752;49.992;8.422;2023-07-16T12:48:53;26.30;1.00
5459;DHT22;2752;49.992;8.422;2023-07-16T12:51:20;26.50;1.00
5459;DHT22;2752;49.992;8.422;2023-07-16T12:53:49;26.50;1.00
5459;DHT22;2752;49.992;8.422;2023-07-16T12:56:19;26.20;1.00
5459;DHT22;2752;49.992;8.422;2023-07-16T12:58:47;26.00;1.00
5459;DHT22;2752;49.992;8.422;2023-07-16T13:01:14;26.00;1.00
5459;DHT22;2752;49.992;8.422;2023-07-16T13:03:42;26.00;1.00
5459;DHT22;2752;49.992;8.422;2023-07-16T13:06:09;26.00;1.00
5459;DHT22;2752;49.992;8.422;2023-07-16T13:08:37;26.20;1.00
5459;DHT22;2752;49.992;8.422;2023-07-16T13:11:05;26.40;1.00
5459;DHT22;2752;49.992;8.422;2023-07-16T13:16:00;26.50;1.00
5459;DHT22;2752;49.992;8.422;2023-07-16T13:18:27;26.70;1.00
5459;DHT22;2752;49.992;8.422;2023-07-16T13:20:54;26.70;1.00
5459;DHT22;2752;49.992;8.422;2023-07-16T13:23:21;26.80;1.00
5459;DHT22;2752;49.992;8.422;2023-07-16T13:28:18;27.00;1.00
5459;DHT22;2752;49.992;8.422;2023-07-16T13:30:45;27.20;1.00
5459;DHT22;2752;49.992;8.422;2023-07-16T13:33:12;27.30;1.00
5459;DHT22;2752;49.992;8.422;2023-07-16T13:35:39;27.20;1.00
5459;DHT22;2752;49.992;8.422;2023-07-16T13:40:34;27.30;1.00
5459;DHT22;2752;49.992;8.422;2023-07-16T13:43:02;27.20;1.00
5459;DHT22;2752;49.992;8.422;2023-07-16T13:50:28;26.90;1.00
5459;DHT22;2752;49.992;8.422;2023-07-16T14:00:22;26.40;1.00
5459;DHT22;2752;49.992;8.422;2023-07-16T14:07:52;26.70;1.00
5459;DHT22;2752;49.992;8.422;2023-07-16T14:20:14;26.70;1.00
5459;DHT22;2752;49.992;8.422;2023-07-16T14:22:42;26.40;1.00
5459;DHT22;2752;49.992;8.422;2023-07-16T14:25:09;26.60;1.00
5459;DHT22;2752;49.992;8.422;2023-07-16T14:27:36;26.70;1.00
5459;DHT22;2752;49.992;8.422;2023-07-16T14:30:05;27.00;1.00
5459;DHT22;2752;49.992;8.422;2023-07-16T14:32:33;27.00;1.00
5459;DHT22;2752;49.992;8.422;2023-07-16T14:35:00;27.00;1.00
5459;DHT22;2752;49.992;8.422;2023-07-16T14:37:28;26.90;1.00
5459;DHT22;2752;49.992;8.422;2023-07-16T14:39:55;26.80;1.00
5459;DHT22;2752;49.992;8.422;2023-07-16T14:42:22;26.80;1.00
5459;DHT22;2752;49.992;8.422;2023-07-16T14:44:49;26.80;1.00
5459;DHT22;2752;49.992;8.422;2023-07-16T14:49:44;27.10;1.00
5459;DHT22;2752;49.992;8.422;2023-07-16T14:52:10;27.30;1.00
5459;DHT22;2752;49.992;8.422;2023-07-16T14:54:38;27.20;1.00
5459;DHT22;2752;49.992;8.422;2023-07-16T14:59:32;27.20;1.00
5459;DHT22;2752;49.992;8.422;2023-07-16T15:14:17;27.30;1.00
5459;DHT22;2752;49.992;8.422;2023-07-16T15:19:10;27.50;1.00
5459;DHT22;2752;49.992;8.422;2023-07-16T15:24:05;27.80;1.00
5459;DHT22;2752;49.992;8.422;2023-07-16T15:26:32;28.00;1.00
5459;DHT22;2752;49.992;8.422;2023-07-16T15:29:00;28.10;1.00
5459;DHT22;2752;49.992;8.422;2023-07-16T15:31:27;28.40;1.00
5459;DHT22;2752;49.992;8.422;2023-07-16T15:33:54;28.40;1.00
5459;DHT22;2752;49.992;8.422;2023-07-16T15:36:21;28.50;1.00
5459;DHT22;2752;49.992;8.422;2023-07-16T15:38:48;28.60;1.00
5459;DHT22;2752;49.992;8.422;2023-07-16T15:41:16;28.50;1.00
5459;DHT22;2752;49.992;8.422;2023-07-16T15:43:45;28.70;1.00
5459;DHT22;2752;49.992;8.422;2023-07-16T15:51:11;29.10;1.00
5459;DHT22;2752;49.992;8.422;2023-07-16T15:56:05;28.80;1.00
5459;DHT22;2752;49.992;8.422;2023-07-16T15:58:31;29.00;1.00
5459;DHT22;2752;49.992;8.422;2023-07-16T16:00:58;29.20;1.00
5459;DHT22;2752;49.992;8.422;2023-07-16T16:03:26;29.00;1.00
5459;DHT22;2752;49.992;8.422;2023-07-16T16:05:53;28.40;1.00
5459;DHT22;2752;49.992;8.422;2023-07-16T16:08:21;28.20;1.00
5459;DHT22;2752;49.992;8.422;2023-07-16T16:10:49;28.40;1.00
5459;DHT22;2752;49.992;8.422;2023-07-16T16:13:16;28.20;1.00
5459;DHT22;2752;49.992;8.422;2023-07-16T16:15:43;28.20;1.00
5459;DHT22;2752;49.992;8.422;2023-07-16T16:18:11;27.90;1.00
5459;DHT22;2752;49.992;8.422;2023-07-16T16:23:08;27.90;1.00
5459;DHT22;2752;49.992;8.422;2023-07-16T16:25:35;28.00;1.00
5459;DHT22;2752;49.992;8.422;2023-07-16T16:28:03;28.20;1.00
5459;DHT22;2752;49.992;8.422;2023-07-16T16:30:30;28.40;1.00
5459;DHT22;2752;49.992;8.422;2023-07-16T16:32:58;28.60;1.00
5459;DHT22;2752;49.992;8.422;2023-07-16T16:40:24;28.90;1.00
5459;DHT22;2752;49.992;8.422;2023-07-16T16:42:50;28.90;1.00
5459;DHT22;2752;49.992;8.422;2023-07-16T16:45:18;29.00;1.00
5459;DHT22;2752;49.992;8.422;2023-07-16T16:47:44;28.70;1.00
5459;DHT22;2752;49.992;8.422;2023-07-16T16:50:11;28.60;1.00
5459;DHT22;2752;49.992;8.422;2023-07-16T16:52:40;28.90;1.00
5459;DHT22;2752;49.992;8.422;2023-07-16T16:55:08;29.00;1.00
5459;DHT22;2752;49.992;8.422;2023-07-16T16:57:35;29.00;1.00
5459;DHT22;2752;49.992;8.422;2023-07-16T17:00:02;29.20;1.00
5459;DHT22;2752;49.992;8.422;2023-07-16T17:02:30;29.30;1.00
5459;DHT22;2752;49.992;8.422;2023-07-16T17:04:57;29.40;1.00
5459;DHT22;2752;49.992;8.422;2023-07-16T17:07:23;29.50;1.00
5459;DHT22;2752;49.992;8.422;2023-07-16T17:09:50;29.60;1.00
5459;DHT22;2752;49.992;8.422;2023-07-16T17:12:18;29.60;1.00
5459;DHT22;2752;49.992;8.422;2023-07-16T17:17:13;30.00;1.00
5459;DHT22;2752;49.992;8.422;2023-07-16T17:19:41;30.00;1.00
5459;DHT22;2752;49.992;8.422;2023-07-16T17:22:08;29.40;1.00
5459;DHT22;2752;49.992;8.422;2023-07-16T17:24:35;29.60;1.00
5459;DHT22;2752;49.992;8.422;2023-07-16T17:27:02;29.70;1.00
5459;DHT22;2752;49.992;8.422;2023-07-16T17:29:30;29.70;1.00
5459;DHT22;2752;49.992;8.422;2023-07-16T17:31:57;29.50;1.00
5459;DHT22;2752;49.992;8.422;2023-07-16T17:34:24;29.60;1.00
5459;DHT22;2752;49.992;8.422;2023-07-16T17:36:51;29.80;1.00
5459;DHT22;2752;49.992;8.422;2023-07-16T17:39:18;29.90;1.00
5459;DHT22;2752;49.992;8.422;2023-07-16T17:44:12;29.80;1.00